sensor_id;sensor_type;location;lat;lon;timestamp;pressure;altitude;pressure_sealevel;temperature;humidity
50632;BME280;49583;45.590;-122.498;2023-04-19T00:00:12;101082.33;;;9.83;56.29
50632;BME280;49583;45.590;-122.498;2023-04-19T00:02:45;101089.90;;;9.78;56.68
50632;BME280;49583;45.590;-122.498;2023-04-19T00:04:59;101086.29;;;9.72;56.28
50632;BME280;49583;45.590;-122.498;2023-04-19T00:07:11;101096.84;;;9.60;56.46
50632;BME280;49583;45.590;-122.498;2023-04-19T00:09:26;101104.48;;;9.48;56.55
50632;BME280;49583;45.590;-122.498;2023-04-19T00:11:39;101096.95;;;9.37;56.78
50632;BME280;49583;45.590;-122.498;2023-04-19T00:13:52;101112.00;;;9.29;57.05
50632;BME280;49583;45.590;-122.498;2023-04-19T00:16:05;101119.38;;;9.19;57.24
50632;BME280;49583;45.590;-122.498;2023-04-19T00:18:18;101124.30;;;9.10;58.26
50632;BME280;49583;45.590;-122.498;2023-04-19T00:20:31;101125.27;;;9.01;58.74
50632;BME280;49583;45.590;-122.498;2023-04-19T00:22:44;101140.52;;;8.91;59.41
50632;BME280;49583;45.590;-122.498;2023-04-19T00:24:56;101134.88;;;8.75;58.96
50632;BME280;49583;45.590;-122.498;2023-04-19T00:27:09;101131.14;;;8.65;59.42
50632;BME280;49583;45.590;-122.498;2023-04-19T00:29:22;101128.52;;;8.57;59.47
50632;BME280;49583;45.590;-122.498;2023-04-19T00:31:35;101123.10;;;8.49;59.87
50632;BME280;49583;45.590;-122.498;2023-04-19T00:33:49;101112.69;;;8.42;59.76
50632;BME280;49583;45.590;-122.498;2023-04-19T00:36:01;101109.27;;;8.38;60.08
50632;BME280;49583;45.590;-122.498;2023-04-19T00:38:14;101116.80;;;8.42;60.55
50632;BME280;49583;45.590;-122.498;2023-04-19T00:40:26;101124.52;;;8.46;60.84
50632;BME280;49583;45.590;-122.498;2023-04-19T00:42:39;101125.56;;;8.51;60.95
50632;BME280;49583;45.590;-122.498;2023-04-19T00:44:53;101127.23;;;8.56;61.08
50632;BME280;49583;45.590;-122.498;2023-04-19T00:47:06;101124.71;;;8.62;61.19
50632;BME280;49583;45.590;-122.498;2023-04-19T00:49:20;101124.06;;;8.67;61.35
50632;BME280;49583;45.590;-122.498;2023-04-19T00:51:34;101126.65;;;8.72;61.03
50632;BME280;49583;45.590;-122.498;2023-04-19T00:53:47;101126.33;;;8.76;61.20
50632;BME280;49583;45.590;-122.498;2023-04-19T00:56:03;101118.88;;;8.79;60.87
50632;BME280;49583;45.590;-122.498;2023-04-19T00:58:17;101120.09;;;8.85;61.06
50632;BME280;49583;45.590;-122.498;2023-04-19T01:00:30;101115.98;;;8.91;61.23
50632;BME280;49583;45.590;-122.498;2023-04-19T01:02:43;101114.98;;;8.95;60.95
50632;BME280;49583;45.590;-122.498;2023-04-19T01:04:56;101110.77;;;8.98;60.83
50632;BME280;49583;45.590;-122.498;2023-04-19T01:07:09;101107.71;;;9.02;61.01
50632;BME280;49583;45.590;-122.498;2023-04-19T01:09:24;101111.29;;;9.06;60.82
50632;BME280;49583;45.590;-122.498;2023-04-19T01:11:38;101109.59;;;9.06;60.70
50632;BME280;49583;45.590;-122.498;2023-04-19T01:13:52;101107.45;;;9.08;60.77
50632;BME280;49583;45.590;-122.498;2023-04-19T01:16:05;101102.86;;;9.10;60.90
50632;BME280;49583;45.590;-122.498;2023-04-19T01:18:18;101105.11;;;9.15;61.34
50632;BME280;49583;45.590;-122.498;2023-04-19T01:20:32;101103.77;;;9.18;61.31
50632;BME280;49583;45.590;-122.498;2023-04-19T01:22:46;101098.00;;;9.21;60.89
50632;BME280;49583;45.590;-122.498;2023-04-19T01:24:59;101097.27;;;9.27;61.06
50632;BME280;49583;45.590;-122.498;2023-04-19T01:27:13;101104.25;;;9.31;61.19
50632;BME280;49583;45.590;-122.498;2023-04-19T01:29:27;101120.27;;;9.34;60.95
50632;BME280;49583;45.590;-122.498;2023-04-19T01:31:39;101135.09;;;9.31;60.86
50632;BME280;49583;45.590;-122.498;2023-04-19T01:33:52;101134.42;;;9.16;60.55
50632;BME280;49583;45.590;-122.498;2023-04-19T01:36:06;101141.26;;;8.97;60.60
50632;BME280;49583;45.590;-122.498;2023-04-19T01:38:19;101140.20;;;8.78;60.91
50632;BME280;49583;45.590;-122.498;2023-04-19T01:40:32;101133.23;;;8.62;61.03
50632;BME280;49583;45.590;-122.498;2023-04-19T01:42:45;101130.90;;;8.47;61.33
50632;BME280;49583;45.590;-122.498;2023-04-19T01:44:58;101123.69;;;8.34;61.58
50632;BME280;49583;45.590;-122.498;2023-04-19T01:47:11;101123.61;;;8.24;61.91
50632;BME280;49583;45.590;-122.498;2023-04-19T01:49:24;101115.06;;;8.17;62.09
50632;BME280;49583;45.590;-122.498;2023-04-19T01:51:37;101114.82;;;8.12;62.30
50632;BME280;49583;45.590;-122.498;2023-04-19T01:53:50;101113.04;;;8.08;62.45
50632;BME280;49583;45.590;-122.498;2023-04-19T01:56:04;101110.93;;;8.04;62.35
50632;BME280;49583;45.590;-122.498;2023-04-19T01:58:18;101113.29;;;8.01;62.62
50632;BME280;49583;45.590;-122.498;2023-04-19T02:00:30;101117.97;;;7.99;62.64
50632;BME280;49583;45.590;-122.498;2023-04-19T02:02:45;101126.20;;;7.98;62.86
50632;BME280;49583;45.590;-122.498;2023-04-19T02:04:58;101132.37;;;7.93;62.96
50632;BME280;49583;45.590;-122.498;2023-04-19T02:07:11;101132.53;;;7.87;62.95
50632;BME280;49583;45.590;-122.498;2023-04-19T02:09:24;101135.58;;;7.83;63.31
50632;BME280;49583;45.590;-122.498;2023-04-19T02:11:36;101135.59;;;7.82;63.47
50632;BME280;49583;45.590;-122.498;2023-04-19T02:13:49;101141.78;;;7.79;63.95
50632;BME280;49583;45.590;-122.498;2023-04-19T02:16:02;101134.06;;;7.69;64.11
50632;BME280;49583;45.590;-122.498;2023-04-19T02:18:16;101137.73;;;7.64;64.11
50632;BME280;49583;45.590;-122.498;2023-04-19T02:20:28;101144.08;;;7.60;64.28
50632;BME280;49583;45.590;-122.498;2023-04-19T02:22:42;101146.02;;;7.55;64.51
50632;BME280;49583;45.590;-122.498;2023-04-19T02:24:55;101144.61;;;7.49;64.73
50632;BME280;49583;45.590;-122.498;2023-04-19T02:27:10;101148.90;;;7.41;65.19
50632;BME280;49583;45.590;-122.498;2023-04-19T02:29:23;101142.89;;;7.35;65.18
50632;BME280;49583;45.590;-122.498;2023-04-19T02:31:37;101134.91;;;7.25;65.33
50632;BME280;49583;45.590;-122.498;2023-04-19T02:33:50;101137.68;;;7.26;65.69
50632;BME280;49583;45.590;-122.498;2023-04-19T02:36:03;101136.17;;;7.22;65.73
50632;BME280;49583;45.590;-122.498;2023-04-19T02:38:16;101133.63;;;7.20;65.89
50632;BME280;49583;45.590;-122.498;2023-04-19T02:40:32;101134.63;;;7.20;65.98
50632;BME280;49583;45.590;-122.498;2023-04-19T02:42:45;101133.16;;;7.20;66.30
50632;BME280;49583;45.590;-122.498;2023-04-19T02:44:58;101134.73;;;7.22;66.50
50632;BME280;49583;45.590;-122.498;2023-04-19T02:47:11;101132.94;;;7.24;66.37
50632;BME280;49583;45.590;-122.498;2023-04-19T02:49:24;101125.32;;;7.26;66.54
50632;BME280;49583;45.590;-122.498;2023-04-19T02:51:37;101127.02;;;7.28;66.53
50632;BME280;49583;45.590;-122.498;2023-04-19T02:53:51;101129.33;;;7.31;66.70
50632;BME280;49583;45.590;-122.498;2023-04-19T02:56:05;101129.35;;;7.33;66.80
50632;BME280;49583;45.590;-122.498;2023-04-19T02:58:17;101123.60;;;7.35;66.74
50632;BME280;49583;45.590;-122.498;2023-04-19T03:00:39;101124.23;;;7.38;66.83
50632;BME280;49583;45.590;-122.498;2023-04-19T03:02:56;101128.02;;;7.41;66.99
50632;BME280;49583;45.590;-122.498;2023-04-19T03:05:11;101128.66;;;7.43;67.31
50632;BME280;49583;45.590;-122.498;2023-04-19T03:07:24;101131.63;;;7.45;67.50
50632;BME280;49583;45.590;-122.498;2023-04-19T03:09:37;101136.66;;;7.47;67.45
50632;BME280;49583;45.590;-122.498;2023-04-19T03:11:50;101138.52;;;7.48;67.73
50632;BME280;49583;45.590;-122.498;2023-04-19T03:14:03;101139.94;;;7.48;67.81
50632;BME280;49583;45.590;-122.498;2023-04-19T03:16:18;101141.98;;;7.51;68.16
50632;BME280;49583;45.590;-122.498;2023-04-19T03:18:32;101139.52;;;7.52;68.23
50632;BME280;49583;45.590;-122.498;2023-04-19T03:20:45;101141.25;;;7.52;68.05
50632;BME280;49583;45.590;-122.498;2023-04-19T03:22:58;101138.75;;;7.52;68.01
50632;BME280;49583;45.590;-122.498;2023-04-19T03:25:13;101137.09;;;7.51;68.22
50632;BME280;49583;45.590;-122.498;2023-04-19T03:27:32;101141.73;;;7.50;68.42
50632;BME280;49583;45.590;-122.498;2023-04-19T03:29:48;101143.30;;;7.51;68.58
50632;BME280;49583;45.590;-122.498;2023-04-19T03:32:03;101140.73;;;7.53;68.88
50632;BME280;49583;45.590;-122.498;2023-04-19T03:34:15;101144.68;;;7.54;68.66
50632;BME280;49583;45.590;-122.498;2023-04-19T03:36:29;101143.46;;;7.51;68.42
50632;BME280;49583;45.590;-122.498;2023-04-19T03:38:42;101146.21;;;7.52;68.49
50632;BME280;49583;45.590;-122.498;2023-04-19T03:41:00;101147.34;;;7.50;68.59
50632;BME280;49583;45.590;-122.498;2023-04-19T03:43:16;101146.83;;;7.46;68.46
50632;BME280;49583;45.590;-122.498;2023-04-19T03:45:29;101150.13;;;7.43;68.53
50632;BME280;49583;45.590;-122.498;2023-04-19T03:47:42;101150.95;;;7.40;68.61
50632;BME280;49583;45.590;-122.498;2023-04-19T03:49:57;101145.48;;;7.36;68.52
50632;BME280;49583;45.590;-122.498;2023-04-19T03:52:11;101141.92;;;7.34;68.66
50632;BME280;49583;45.590;-122.498;2023-04-19T03:54:24;101145.13;;;7.31;68.89
50632;BME280;49583;45.590;-122.498;2023-04-19T03:56:37;101155.10;;;7.31;69.04
50632;BME280;49583;45.590;-122.498;2023-04-19T03:58:52;101158.77;;;7.31;69.10
50632;BME280;49583;45.590;-122.498;2023-04-19T04:01:04;101159.84;;;7.31;69.11
50632;BME280;49583;45.590;-122.498;2023-04-19T04:03:18;101161.02;;;7.31;69.25
50632;BME280;49583;45.590;-122.498;2023-04-19T04:05:31;101161.41;;;7.31;69.33
50632;BME280;49583;45.590;-122.498;2023-04-19T04:07:44;101162.98;;;7.31;69.55
50632;BME280;49583;45.590;-122.498;2023-04-19T04:09:57;101165.41;;;7.32;69.31
50632;BME280;49583;45.590;-122.498;2023-04-19T04:12:11;101165.89;;;7.30;69.39
50632;BME280;49583;45.590;-122.498;2023-04-19T04:14:25;101167.33;;;7.27;69.03
50632;BME280;49583;45.590;-122.498;2023-04-19T04:16:38;101173.23;;;7.25;69.09
50632;BME280;49583;45.590;-122.498;2023-04-19T04:18:51;101169.89;;;7.24;69.10
50632;BME280;49583;45.590;-122.498;2023-04-19T04:21:06;101178.15;;;7.22;69.16
50632;BME280;49583;45.590;-122.498;2023-04-19T04:23:21;101175.56;;;7.20;69.18
50632;BME280;49583;45.590;-122.498;2023-04-19T04:25:35;101175.95;;;7.15;68.90
50632;BME280;49583;45.590;-122.498;2023-04-19T04:27:52;101176.64;;;7.13;69.17
50632;BME280;49583;45.590;-122.498;2023-04-19T04:30:07;101180.86;;;7.11;69.09
50632;BME280;49583;45.590;-122.498;2023-04-19T04:32:20;101178.73;;;7.07;69.18
50632;BME280;49583;45.590;-122.498;2023-04-19T04:34:37;101176.21;;;7.01;69.22
50632;BME280;49583;45.590;-122.498;2023-04-19T04:36:53;101178.24;;;6.97;69.34
50632;BME280;49583;45.590;-122.498;2023-04-19T04:39:06;101177.29;;;6.92;69.63
50632;BME280;49583;45.590;-122.498;2023-04-19T04:41:23;101183.83;;;6.88;69.77
50632;BME280;49583;45.590;-122.498;2023-04-19T04:43:36;101183.29;;;6.81;70.04
50632;BME280;49583;45.590;-122.498;2023-04-19T04:45:50;101187.84;;;6.77;70.14
50632;BME280;49583;45.590;-122.498;2023-04-19T04:48:06;101186.16;;;6.75;70.17
50632;BME280;49583;45.590;-122.498;2023-04-19T04:50:19;101188.20;;;6.73;70.31
50632;BME280;49583;45.590;-122.498;2023-04-19T04:52:32;101185.38;;;6.71;70.26
50632;BME280;49583;45.590;-122.498;2023-04-19T04:54:51;101185.09;;;6.70;70.51
50632;BME280;49583;45.590;-122.498;2023-04-19T04:57:08;101191.73;;;6.67;70.43
50632;BME280;49583;45.590;-122.498;2023-04-19T04:59:22;101184.91;;;6.65;70.52
50632;BME280;49583;45.590;-122.498;2023-04-19T05:01:35;101192.55;;;6.64;70.63
50632;BME280;49583;45.590;-122.498;2023-04-19T05:03:48;101190.56;;;6.63;70.80
50632;BME280;49583;45.590;-122.498;2023-04-19T05:06:01;101186.08;;;6.62;70.93
50632;BME280;49583;45.590;-122.498;2023-04-19T05:08:14;101185.59;;;6.62;71.04
50632;BME280;49583;45.590;-122.498;2023-04-19T05:10:29;101174.39;;;6.60;70.93
50632;BME280;49583;45.590;-122.498;2023-04-19T05:12:42;101174.63;;;6.63;71.10
50632;BME280;49583;45.590;-122.498;2023-04-19T05:14:58;101173.46;;;6.64;71.01
50632;BME280;49583;45.590;-122.498;2023-04-19T05:17:11;101178.20;;;6.65;71.00
50632;BME280;49583;45.590;-122.498;2023-04-19T05:19:24;101180.88;;;6.66;71.23
50632;BME280;49583;45.590;-122.498;2023-04-19T05:21:41;101180.64;;;6.66;71.23
50632;BME280;49583;45.590;-122.498;2023-04-19T05:23:55;101185.00;;;6.66;71.10
50632;BME280;49583;45.590;-122.498;2023-04-19T05:26:08;101182.91;;;6.64;71.07
50632;BME280;49583;45.590;-122.498;2023-04-19T05:28:24;101184.61;;;6.66;71.26
50632;BME280;49583;45.590;-122.498;2023-04-19T05:30:51;101186.30;;;6.65;71.31
50632;BME280;49583;45.590;-122.498;2023-04-19T05:33:04;101184.39;;;6.64;71.51
50632;BME280;49583;45.590;-122.498;2023-04-19T05:35:17;101193.10;;;6.64;71.31
50632;BME280;49583;45.590;-122.498;2023-04-19T05:37:31;101190.31;;;6.65;71.36
50632;BME280;49583;45.590;-122.498;2023-04-19T05:39:46;101192.16;;;6.64;71.31
50632;BME280;49583;45.590;-122.498;2023-04-19T05:42:00;101195.56;;;6.64;71.33
50632;BME280;49583;45.590;-122.498;2023-04-19T05:44:12;101196.17;;;6.63;71.33
50632;BME280;49583;45.590;-122.498;2023-04-19T05:46:26;101200.68;;;6.64;71.44
50632;BME280;49583;45.590;-122.498;2023-04-19T05:48:40;101201.80;;;6.62;71.39
50632;BME280;49583;45.590;-122.498;2023-04-19T05:51:13;101196.41;;;6.60;71.51
50632;BME280;49583;45.590;-122.498;2023-04-19T05:53:37;101196.09;;;6.60;71.83
50632;BME280;49583;45.590;-122.498;2023-04-19T05:55:50;101189.75;;;6.57;71.72
50632;BME280;49583;45.590;-122.498;2023-04-19T05:58:03;101191.75;;;6.57;71.61
50632;BME280;49583;45.590;-122.498;2023-04-19T06:00:18;101190.02;;;6.54;71.75
50632;BME280;49583;45.590;-122.498;2023-04-19T06:02:35;101194.33;;;6.54;71.80
50632;BME280;49583;45.590;-122.498;2023-04-19T06:04:48;101186.23;;;6.52;71.88
50632;BME280;49583;45.590;-122.498;2023-04-19T06:07:01;101184.94;;;6.51;71.90
50632;BME280;49583;45.590;-122.498;2023-04-19T06:09:25;101181.50;;;6.48;71.98
50632;BME280;49583;45.590;-122.498;2023-04-19T06:11:38;101183.64;;;6.47;72.07
50632;BME280;49583;45.590;-122.498;2023-04-19T06:13:59;101181.64;;;6.45;71.94
50632;BME280;49583;45.590;-122.498;2023-04-19T06:16:12;101179.40;;;6.43;72.14
50632;BME280;49583;45.590;-122.498;2023-04-19T06:18:25;101178.57;;;6.44;72.28
50632;BME280;49583;45.590;-122.498;2023-04-19T06:20:38;101178.73;;;6.44;72.09
50632;BME280;49583;45.590;-122.498;2023-04-19T06:22:51;101185.35;;;6.45;72.30
50632;BME280;49583;45.590;-122.498;2023-04-19T06:25:06;101179.55;;;6.44;72.32
50632;BME280;49583;45.590;-122.498;2023-04-19T06:27:18;101181.39;;;6.41;72.09
50632;BME280;49583;45.590;-122.498;2023-04-19T06:29:31;101183.00;;;6.42;72.42
50632;BME280;49583;45.590;-122.498;2023-04-19T06:31:44;101184.40;;;6.42;72.43
50632;BME280;49583;45.590;-122.498;2023-04-19T06:33:57;101185.38;;;6.44;72.41
50632;BME280;49583;45.590;-122.498;2023-04-19T06:36:11;101183.56;;;6.43;72.81
50632;BME280;49583;45.590;-122.498;2023-04-19T06:38:23;101188.65;;;6.44;72.78
50632;BME280;49583;45.590;-122.498;2023-04-19T06:40:36;101186.51;;;6.44;72.83
50632;BME280;49583;45.590;-122.498;2023-04-19T06:42:48;101185.11;;;6.46;73.03
50632;BME280;49583;45.590;-122.498;2023-04-19T06:45:01;101186.19;;;6.44;72.94
50632;BME280;49583;45.590;-122.498;2023-04-19T06:47:14;101187.25;;;6.45;73.10
50632;BME280;49583;45.590;-122.498;2023-04-19T06:49:27;101188.05;;;6.45;72.90
50632;BME280;49583;45.590;-122.498;2023-04-19T06:51:40;101187.34;;;6.45;72.95
50632;BME280;49583;45.590;-122.498;2023-04-19T06:53:53;101190.16;;;6.44;73.04
50632;BME280;49583;45.590;-122.498;2023-04-19T06:56:07;101190.55;;;6.42;73.15
50632;BME280;49583;45.590;-122.498;2023-04-19T06:58:19;101191.73;;;6.41;73.20
50632;BME280;49583;45.590;-122.498;2023-04-19T07:00:32;101192.18;;;6.41;73.20
50632;BME280;49583;45.590;-122.498;2023-04-19T07:02:45;101195.03;;;6.40;73.16
50632;BME280;49583;45.590;-122.498;2023-04-19T07:04:58;101197.97;;;6.40;73.23
50632;BME280;49583;45.590;-122.498;2023-04-19T07:07:11;101197.07;;;6.39;73.36
50632;BME280;49583;45.590;-122.498;2023-04-19T07:09:24;101198.26;;;6.39;73.54
50632;BME280;49583;45.590;-122.498;2023-04-19T07:11:37;101203.77;;;6.39;73.44
50632;BME280;49583;45.590;-122.498;2023-04-19T07:13:49;101204.66;;;6.38;73.44
50632;BME280;49583;45.590;-122.498;2023-04-19T07:16:05;101203.65;;;6.37;73.37
50632;BME280;49583;45.590;-122.498;2023-04-19T07:18:18;101209.95;;;6.37;73.21
50632;BME280;49583;45.590;-122.498;2023-04-19T07:20:31;101203.98;;;6.37;73.43
50632;BME280;49583;45.590;-122.498;2023-04-19T07:22:44;101205.35;;;6.37;73.53
50632;BME280;49583;45.590;-122.498;2023-04-19T07:24:57;101204.96;;;6.37;73.33
50632;BME280;49583;45.590;-122.498;2023-04-19T07:27:09;101208.77;;;6.35;73.29
50632;BME280;49583;45.590;-122.498;2023-04-19T07:29:23;101209.75;;;6.34;73.07
50632;BME280;49583;45.590;-122.498;2023-04-19T07:31:36;101205.46;;;6.34;73.14
50632;BME280;49583;45.590;-122.498;2023-04-19T07:33:51;101210.52;;;6.34;73.26
50632;BME280;49583;45.590;-122.498;2023-04-19T07:36:05;101217.08;;;6.34;73.14
50632;BME280;49583;45.590;-122.498;2023-04-19T07:38:18;101218.35;;;6.35;72.86
50632;BME280;49583;45.590;-122.498;2023-04-19T07:40:30;101213.95;;;6.33;72.90
50632;BME280;49583;45.590;-122.498;2023-04-19T07:42:44;101214.38;;;6.35;72.87
50632;BME280;49583;45.590;-122.498;2023-04-19T07:44:56;101217.06;;;6.36;72.86
50632;BME280;49583;45.590;-122.498;2023-04-19T07:47:09;101218.46;;;6.36;72.51
50632;BME280;49583;45.590;-122.498;2023-04-19T07:49:21;101210.66;;;6.36;72.46
50632;BME280;49583;45.590;-122.498;2023-04-19T07:51:34;101210.11;;;6.35;72.32
50632;BME280;49583;45.590;-122.498;2023-04-19T07:53:48;101214.17;;;6.36;72.33
50632;BME280;49583;45.590;-122.498;2023-04-19T07:56:02;101217.89;;;6.36;72.42
50632;BME280;49583;45.590;-122.498;2023-04-19T07:58:14;101214.81;;;6.36;72.07
50632;BME280;49583;45.590;-122.498;2023-04-19T08:00:28;101217.26;;;6.37;72.22
50632;BME280;49583;45.590;-122.498;2023-04-19T08:02:44;101216.61;;;6.36;72.07
50632;BME280;49583;45.590;-122.498;2023-04-19T08:04:57;101213.83;;;6.37;71.87
50632;BME280;49583;45.590;-122.498;2023-04-19T08:07:11;101216.55;;;6.37;71.91
50632;BME280;49583;45.590;-122.498;2023-04-19T08:09:24;101215.42;;;6.36;71.72
50632;BME280;49583;45.590;-122.498;2023-04-19T08:11:37;101215.73;;;6.36;71.81
50632;BME280;49583;45.590;-122.498;2023-04-19T08:13:49;101215.46;;;6.35;71.77
50632;BME280;49583;45.590;-122.498;2023-04-19T08:16:22;101215.55;;;6.36;71.59
50632;BME280;49583;45.590;-122.498;2023-04-19T08:18:55;101215.88;;;6.36;71.29
50632;BME280;49583;45.590;-122.498;2023-04-19T08:21:08;101212.80;;;6.35;71.46
50632;BME280;49583;45.590;-122.498;2023-04-19T08:23:21;101212.84;;;6.36;71.47
50632;BME280;49583;45.590;-122.498;2023-04-19T08:25:46;101215.10;;;6.36;71.10
50632;BME280;49583;45.590;-122.498;2023-04-19T08:27:58;101214.63;;;6.36;71.22
50632;BME280;49583;45.590;-122.498;2023-04-19T08:30:14;101218.63;;;6.36;71.33
50632;BME280;49583;45.590;-122.498;2023-04-19T08:32:27;101218.72;;;6.37;71.21
50632;BME280;49583;45.590;-122.498;2023-04-19T08:34:41;101214.02;;;6.36;71.16
50632;BME280;49583;45.590;-122.498;2023-04-19T08:36:53;101210.88;;;6.35;70.99
50632;BME280;49583;45.590;-122.498;2023-04-19T08:39:13;101214.62;;;6.36;71.23
50632;BME280;49583;45.590;-122.498;2023-04-19T08:41:40;101210.33;;;6.35;70.98
50632;BME280;49583;45.590;-122.498;2023-04-19T08:43:59;101208.41;;;6.36;70.94
50632;BME280;49583;45.590;-122.498;2023-04-19T08:46:13;101204.90;;;6.35;70.84
50632;BME280;49583;45.590;-122.498;2023-04-19T08:48:26;101207.42;;;6.36;71.00
50632;BME280;49583;45.590;-122.498;2023-04-19T08:50:42;101197.54;;;6.36;70.99
50632;BME280;49583;45.590;-122.498;2023-04-19T08:53:12;101197.01;;;6.39;71.06
50632;BME280;49583;45.590;-122.498;2023-04-19T08:55:33;101193.71;;;6.37;71.11
50632;BME280;49583;45.590;-122.498;2023-04-19T08:57:53;101195.86;;;6.40;71.22
50632;BME280;49583;45.590;-122.498;2023-04-19T09:00:07;101194.75;;;6.41;71.18
50632;BME280;49583;45.590;-122.498;2023-04-19T09:02:20;101196.59;;;6.40;70.89
50632;BME280;49583;45.590;-122.498;2023-04-19T09:04:34;101196.86;;;6.41;71.14
50632;BME280;49583;45.590;-122.498;2023-04-19T09:06:47;101194.23;;;6.41;71.04
50632;BME280;49583;45.590;-122.498;2023-04-19T09:09:15;101199.88;;;6.42;71.13
50632;BME280;49583;45.590;-122.498;2023-04-19T09:11:44;101200.98;;;6.43;71.08
50632;BME280;49583;45.590;-122.498;2023-04-19T09:14:09;101202.84;;;6.42;70.91
50632;BME280;49583;45.590;-122.498;2023-04-19T09:16:28;101204.70;;;6.42;70.92
50632;BME280;49583;45.590;-122.498;2023-04-19T09:18:56;101201.76;;;6.41;71.14
50632;BME280;49583;45.590;-122.498;2023-04-19T09:21:34;101203.94;;;6.41;71.09
50632;BME280;49583;45.590;-122.498;2023-04-19T09:23:49;101203.35;;;6.42;71.02
50632;BME280;49583;45.590;-122.498;2023-04-19T09:26:03;101204.08;;;6.43;70.97
50632;BME280;49583;45.590;-122.498;2023-04-19T09:28:31;101201.70;;;6.44;70.94
50632;BME280;49583;45.590;-122.498;2023-04-19T09:30:44;101201.48;;;6.44;71.13
50632;BME280;49583;45.590;-122.498;2023-04-19T09:33:15;101202.38;;;6.41;70.82
50632;BME280;49583;45.590;-122.498;2023-04-19T09:35:44;101207.45;;;6.41;70.96
50632;BME280;49583;45.590;-122.498;2023-04-19T09:38:07;101210.84;;;6.39;70.91
50632;BME280;49583;45.590;-122.498;2023-04-19T09:40:23;101207.63;;;6.39;71.02
50632;BME280;49583;45.590;-122.498;2023-04-19T09:42:48;101214.23;;;6.38;71.16
50632;BME280;49583;45.590;-122.498;2023-04-19T09:45:04;101212.33;;;6.38;71.04
50632;BME280;49583;45.590;-122.498;2023-04-19T09:47:26;101215.53;;;6.38;71.25
50632;BME280;49583;45.590;-122.498;2023-04-19T09:49:41;101216.56;;;6.39;71.08
50632;BME280;49583;45.590;-122.498;2023-04-19T09:51:58;101211.18;;;6.38;71.01
50632;BME280;49583;45.590;-122.498;2023-04-19T09:54:11;101213.67;;;6.38;71.05
50632;BME280;49583;45.590;-122.498;2023-04-19T09:56:24;101215.20;;;6.38;70.97
50632;BME280;49583;45.590;-122.498;2023-04-19T09:58:37;101212.98;;;6.38;71.08
50632;BME280;49583;45.590;-122.498;2023-04-19T10:04:05;101210.45;;;6.38;70.87
50632;BME280;49583;45.590;-122.498;2023-04-19T10:06:32;101219.06;;;6.39;70.84
50632;BME280;49583;45.590;-122.498;2023-04-19T10:09:06;101215.52;;;6.38;70.64
50632;BME280;49583;45.590;-122.498;2023-04-19T10:11:20;101216.40;;;6.38;70.95
50632;BME280;49583;45.590;-122.498;2023-04-19T10:13:34;101219.35;;;6.40;70.84
50632;BME280;49583;45.590;-122.498;2023-04-19T10:15:48;101223.38;;;6.40;70.89
50632;BME280;49583;45.590;-122.498;2023-04-19T10:18:13;101221.30;;;6.40;70.83
50632;BME280;49583;45.590;-122.498;2023-04-19T10:20:29;101220.94;;;6.39;71.07
50632;BME280;49583;45.590;-122.498;2023-04-19T10:22:45;101227.12;;;6.38;71.09
50632;BME280;49583;45.590;-122.498;2023-04-19T10:25:15;101228.90;;;6.37;71.05
50632;BME280;49583;45.590;-122.498;2023-04-19T10:27:28;101230.19;;;6.32;71.10
50632;BME280;49583;45.590;-122.498;2023-04-19T10:30:00;101228.59;;;6.29;71.05
50632;BME280;49583;45.590;-122.498;2023-04-19T10:32:17;101224.09;;;6.27;71.15
50632;BME280;49583;45.590;-122.498;2023-04-19T10:34:40;101226.20;;;6.27;71.23
50632;BME280;49583;45.590;-122.498;2023-04-19T10:36:53;101229.10;;;6.28;71.38
50632;BME280;49583;45.590;-122.498;2023-04-19T10:39:41;101234.04;;;6.29;71.36
50632;BME280;49583;45.590;-122.498;2023-04-19T10:42:09;101242.61;;;6.29;71.37
50632;BME280;49583;45.590;-122.498;2023-04-19T10:44:23;101239.11;;;6.28;71.27
50632;BME280;49583;45.590;-122.498;2023-04-19T10:46:42;101242.54;;;6.28;71.39
50632;BME280;49583;45.590;-122.498;2023-04-19T10:48:55;101243.91;;;6.27;71.61
50632;BME280;49583;45.590;-122.498;2023-04-19T10:51:14;101245.85;;;6.27;71.61
50632;BME280;49583;45.590;-122.498;2023-04-19T10:53:47;101247.04;;;6.26;71.52
50632;BME280;49583;45.590;-122.498;2023-04-19T10:56:01;101249.18;;;6.27;71.48
50632;BME280;49583;45.590;-122.498;2023-04-19T10:58:14;101254.71;;;6.25;71.62
50632;BME280;49583;45.590;-122.498;2023-04-19T11:00:27;101254.70;;;6.23;71.47
50632;BME280;49583;45.590;-122.498;2023-04-19T11:02:42;101258.02;;;6.23;71.58
50632;BME280;49583;45.590;-122.498;2023-04-19T11:05:02;101262.05;;;6.23;71.57
50632;BME280;49583;45.590;-122.498;2023-04-19T11:07:15;101264.77;;;6.21;71.95
50632;BME280;49583;45.590;-122.498;2023-04-19T11:09:31;101266.71;;;6.22;71.75
50632;BME280;49583;45.590;-122.498;2023-04-19T11:11:44;101266.10;;;6.18;72.09
50632;BME280;49583;45.590;-122.498;2023-04-19T11:13:57;101270.17;;;6.17;71.93
50632;BME280;49583;45.590;-122.498;2023-04-19T11:16:12;101273.35;;;6.14;71.92
50632;BME280;49583;45.590;-122.498;2023-04-19T11:18:32;101271.45;;;6.13;72.22
50632;BME280;49583;45.590;-122.498;2023-04-19T11:20:46;101271.97;;;6.12;72.40
50632;BME280;49583;45.590;-122.498;2023-04-19T11:23:04;101276.61;;;6.14;72.69
50632;BME280;49583;45.590;-122.498;2023-04-19T11:25:27;101282.20;;;6.12;72.60
50632;BME280;49583;45.590;-122.498;2023-04-19T11:27:42;101280.42;;;6.10;72.60
50632;BME280;49583;45.590;-122.498;2023-04-19T11:30:03;101283.59;;;6.10;72.56
50632;BME280;49583;45.590;-122.498;2023-04-19T11:32:17;101283.88;;;6.09;72.55